PWSweather.com
Personal Weather Stations
Station Observations
KNCGREEN1
Sw Greensboro, Greensboro, NC 27407

Sw GreensboroGreensboro, NC 27407

Lat: 36.04, Lon: -79.87

Elevation: 870

Station Type: Davis

http://www.weathertrek.com

Latest ConditionsUpdated 2:50:06 PM EDT Tuesday, Sep 27, 2016
Currently Today's Max Today's Min Today's Average
Temperature 76.7°F24.8°C 76.7°F24.8°C 66.9°F19.4°C 69.4°F20.8°C
Dew Point 67.4°F19.7°C 70.5°F21.4°C 65.1°F18.4°C 66.8°F19.3°C
Winds Calm Calm 1.0 mph NE1.6 kmh NE - 0.0 mph 0.0 kmh
Wind Gusts 1.0 mph1.6 kmh 5.0 mph8.0 kmh - -
Humidity 73% 95% 73% 92%
Pressure 29.79 in1008.8 mb 29.94 in1013.9 mb 29.79 in1008.8 mb -
Hour Temp Dew Point Humidity Winds Wind Gusts Pressure Precip Precip Rate Daily Precip Total
02:50 PM 76.7°F24.8°C 67.4°F19.7°C 73% Calm Calm 1.0 mph1.6 kmh 29.79 in1008.8 mb 0.00 in0.0 mm 0.00 in0.0 mm 0.38 in9.7 mm
02:45 PM 76.7°F24.8°C 67.8°F19.9°C 74% Calm Calm 2.0 mph3.2 kmh 29.80 in1009.1 mb 0.00 in0.0 mm 0.00 in0.0 mm 0.38 in9.7 mm
02:40 PM 76.5°F24.7°C 67.2°F19.6°C 73% Calm Calm 2.0 mph3.2 kmh 29.80 in1009.1 mb 0.00 in0.0 mm 0.00 in0.0 mm 0.38 in9.7 mm
02:35 PM 76.3°F24.6°C 68.2°F20.1°C 76% Calm Calm 2.0 mph3.2 kmh 29.80 in1009.1 mb 0.00 in0.0 mm 0.00 in0.0 mm 0.38 in9.7 mm
02:30 PM 76.0°F24.4°C 67.5°F19.7°C 75% Calm Calm 2.0 mph3.2 kmh 29.81 in1009.5 mb 0.00 in0.0 mm 0.00 in0.0 mm 0.38 in9.7 mm
02:25 PM 76.0°F24.4°C 67.9°F19.9°C 76% 1.0 mph NW1.6 kmh NW 2.0 mph3.2 kmh 29.81 in1009.5 mb 0.00 in0.0 mm 0.00 in0.0 mm 0.38 in9.7 mm
02:20 PM 75.8°F24.3°C 67.3°F19.6°C 75% Calm Calm 1.0 mph1.6 kmh 29.81 in1009.5 mb 0.00 in0.0 mm 0.00 in0.0 mm 0.38 in9.7 mm
02:15 PM 75.8°F24.3°C 68.1°F20.1°C 77% Calm Calm 2.0 mph3.2 kmh 29.82 in1009.8 mb 0.00 in0.0 mm 0.00 in0.0 mm 0.38 in9.7 mm
02:10 PM 75.6°F24.2°C 67.5°F19.7°C 76% Calm Calm 2.0 mph3.2 kmh 29.82 in1009.8 mb 0.00 in0.0 mm 0.00 in0.0 mm 0.38 in9.7 mm
02:05 PM 75.6°F24.2°C 67.9°F19.9°C 77% Calm Calm 1.0 mph1.6 kmh 29.82 in1009.8 mb 0.00 in0.0 mm 0.00 in0.0 mm 0.38 in9.7 mm
02:00 PM 75.4°F24.1°C 68.4°F20.2°C 79% Calm Calm 2.0 mph3.2 kmh 29.83 in1010.2 mb 0.00 in0.0 mm 0.00 in0.0 mm 0.38 in9.7 mm
01:55 PM 75.3°F24.1°C 68.3°F20.2°C 79% Calm Calm 2.0 mph3.2 kmh 29.83 in1010.2 mb 0.00 in0.0 mm 0.00 in0.0 mm 0.38 in9.7 mm
01:50 PM 74.9°F23.8°C 68.3°F20.2°C 80% Calm Calm 1.0 mph1.6 kmh 29.83 in1010.2 mb 0.00 in0.0 mm 0.00 in0.0 mm 0.38 in9.7 mm
01:45 PM 74.7°F23.7°C 68.1°F20.1°C 80% Calm Calm 3.0 mph4.8 kmh 29.84 in1010.5 mb 0.00 in0.0 mm 0.00 in0.0 mm 0.38 in9.7 mm
01:40 PM 74.6°F23.7°C 68.0°F20.0°C 80% Calm Calm 1.0 mph1.6 kmh 29.84 in1010.5 mb 0.00 in0.0 mm 0.00 in0.0 mm 0.38 in9.7 mm
01:35 PM 74.4°F23.6°C 68.2°F20.1°C 81% Calm Calm 1.0 mph1.6 kmh 29.84 in1010.5 mb 0.00 in0.0 mm 0.00 in0.0 mm 0.38 in9.7 mm
01:30 PM 74.6°F23.7°C 68.4°F20.2°C 81% Calm Calm 5.0 mph8.0 kmh 29.84 in1010.5 mb 0.00 in0.0 mm 0.00 in0.0 mm 0.38 in9.7 mm
01:25 PM 74.6°F23.7°C 68.4°F20.2°C 81% Calm Calm 5.0 mph8.0 kmh 29.84 in1010.5 mb 0.00 in0.0 mm 0.00 in0.0 mm 0.38 in9.7 mm
01:20 PM 74.6°F23.7°C 68.8°F20.4°C 82% Calm Calm 5.0 mph8.0 kmh 29.84 in1010.5 mb 0.00 in0.0 mm 0.00 in0.0 mm 0.38 in9.7 mm
01:15 PM 74.6°F23.7°C 68.8°F20.4°C 82% Calm Calm 2.0 mph3.2 kmh 29.85 in1010.8 mb 0.00 in0.0 mm 0.00 in0.0 mm 0.38 in9.7 mm
01:10 PM 74.4°F23.6°C 68.6°F20.3°C 82% Calm Calm 1.0 mph1.6 kmh 29.85 in1010.8 mb 0.00 in0.0 mm 0.00 in0.0 mm 0.38 in9.7 mm
01:05 PM 74.2°F23.4°C 68.7°F20.4°C 83% Calm Calm 1.0 mph1.6 kmh 29.85 in1010.8 mb 0.00 in0.0 mm 0.00 in0.0 mm 0.38 in9.7 mm
01:00 PM 74.2°F23.4°C 68.4°F20.2°C 82% Calm Calm 2.0 mph3.2 kmh 29.85 in1010.8 mb 0.00 in0.0 mm 0.00 in0.0 mm 0.38 in9.7 mm
12:55 PM 74.4°F23.6°C 68.6°F20.3°C 82% Calm Calm 2.0 mph3.2 kmh 29.85 in1010.8 mb 0.00 in0.0 mm 0.00 in0.0 mm 0.38 in9.7 mm
12:50 PM 74.6°F23.7°C 69.1°F20.6°C 83% Calm Calm 2.0 mph3.2 kmh 29.85 in1010.8 mb 0.00 in0.0 mm 0.00 in0.0 mm 0.38 in9.7 mm
12:45 PM 74.6°F23.7°C 69.5°F20.8°C 84% Calm Calm 5.0 mph8.0 kmh 29.85 in1010.8 mb 0.00 in0.0 mm 0.00 in0.0 mm 0.38 in9.7 mm
12:40 PM 74.2°F23.4°C 69.8°F21.0°C 86% 1.0 mph NE1.6 kmh NE 5.0 mph8.0 kmh 29.85 in1010.8 mb 0.00 in0.0 mm 0.00 in0.0 mm 0.38 in9.7 mm
12:35 PM 73.9°F23.3°C 69.5°F20.8°C 86% Calm Calm -- 29.85 in1010.8 mb 0.00 in0.0 mm 0.00 in0.0 mm 0.38 in9.7 mm
12:30 PM 73.5°F23.1°C 69.4°F20.8°C 87% Calm Calm 1.0 mph1.6 kmh 29.86 in1011.2 mb 0.00 in0.0 mm 0.00 in0.0 mm 0.38 in9.7 mm
12:25 PM 73.2°F22.9°C 69.8°F21.0°C 89% Calm Calm -- 29.86 in1011.2 mb 0.00 in0.0 mm 0.00 in0.0 mm 0.38 in9.7 mm
12:20 PM 72.8°F22.7°C 69.7°F20.9°C 90% Calm Calm -- 29.86 in1011.2 mb 0.00 in0.0 mm 0.00 in0.0 mm 0.38 in9.7 mm
12:15 PM 72.8°F22.7°C 69.4°F20.8°C 89% Calm Calm -- 29.87 in1011.5 mb 0.00 in0.0 mm 0.00 in0.0 mm 0.38 in9.7 mm
12:10 PM 72.8°F22.7°C 69.7°F20.9°C 90% Calm Calm -- 29.87 in1011.5 mb 0.00 in0.0 mm 0.00 in0.0 mm 0.38 in9.7 mm
12:05 PM 72.7°F22.6°C 69.6°F20.9°C 90% Calm Calm -- 29.87 in1011.5 mb 0.00 in0.0 mm 0.00 in0.0 mm 0.38 in9.7 mm
12:00 PM 72.5°F22.5°C 69.4°F20.8°C 90% Calm Calm 1.0 mph1.6 kmh 29.87 in1011.5 mb 0.00 in0.0 mm 0.00 in0.0 mm 0.38 in9.7 mm
11:55 AM 72.5°F22.5°C 69.7°F20.9°C 91% Calm Calm 1.0 mph1.6 kmh 29.87 in1011.5 mb 0.00 in0.0 mm 0.00 in0.0 mm 0.38 in9.7 mm
11:50 AM 72.3°F22.4°C 69.5°F20.8°C 91% Calm Calm 1.0 mph1.6 kmh 29.87 in1011.5 mb 0.00 in0.0 mm 0.00 in0.0 mm 0.38 in9.7 mm
11:45 AM 72.5°F22.5°C 70.1°F21.2°C 92% Calm Calm 1.0 mph1.6 kmh 29.88 in1011.9 mb 0.00 in0.0 mm 0.00 in0.0 mm 0.38 in9.7 mm
11:40 AM 72.3°F22.4°C 70.5°F21.4°C 94% Calm Calm 1.0 mph1.6 kmh 29.88 in1011.9 mb 0.00 in0.0 mm 0.00 in0.0 mm 0.38 in9.7 mm
11:35 AM 72.0°F22.2°C 69.9°F21.1°C 93% Calm Calm 1.0 mph1.6 kmh 29.88 in1011.9 mb 0.00 in0.0 mm 0.00 in0.0 mm 0.38 in9.7 mm
11:30 AM 71.8°F22.1°C 69.7°F20.9°C 93% Calm Calm -- 29.89 in1012.2 mb 0.00 in0.0 mm 0.00 in0.0 mm 0.38 in9.7 mm
11:25 AM 71.6°F22.0°C 69.8°F21.0°C 94% Calm Calm -- 29.89 in1012.2 mb 0.00 in0.0 mm 0.00 in0.0 mm 0.38 in9.7 mm
11:20 AM 71.5°F21.9°C 69.7°F20.9°C 94% Calm Calm -- 29.89 in1012.2 mb 0.00 in0.0 mm 0.00 in0.0 mm 0.38 in9.7 mm
11:15 AM 71.3°F21.8°C 69.5°F20.8°C 94% Calm Calm -- 29.89 in1012.2 mb 0.00 in0.0 mm 0.00 in0.0 mm 0.38 in9.7 mm
11:10 AM 71.1°F21.7°C 69.3°F20.7°C 94% Calm Calm -- 29.89 in1012.2 mb 0.00 in0.0 mm 0.00 in0.0 mm 0.38 in9.7 mm
11:05 AM 70.9°F21.6°C 69.1°F20.6°C 94% Calm Calm -- 29.89 in1012.2 mb 0.00 in0.0 mm 0.00 in0.0 mm 0.38 in9.7 mm
11:00 AM 70.9°F21.6°C 69.1°F20.6°C 94% Calm Calm -- 29.89 in1012.2 mb 0.00 in0.0 mm 0.00 in0.0 mm 0.38 in9.7 mm
10:55 AM 70.9°F21.6°C 69.4°F20.8°C 95% Calm Calm -- 29.89 in1012.2 mb 0.00 in0.0 mm 0.00 in0.0 mm 0.38 in9.7 mm
10:50 AM 70.8°F21.6°C 69.3°F20.7°C 95% Calm Calm -- 29.89 in1012.2 mb 0.00 in0.0 mm 0.00 in0.0 mm 0.38 in9.7 mm
10:45 AM 70.6°F21.4°C 69.1°F20.6°C 95% Calm Calm -- 29.89 in1012.2 mb 0.00 in0.0 mm 0.00 in0.0 mm 0.38 in9.7 mm
10:40 AM 70.4°F21.3°C 68.9°F20.5°C 95% Calm Calm -- 29.89 in1012.2 mb 0.00 in0.0 mm 0.00 in0.0 mm 0.38 in9.7 mm
10:35 AM 70.4°F21.3°C 68.9°F20.5°C 95% Calm Calm -- 29.89 in1012.2 mb 0.00 in0.0 mm 0.00 in0.0 mm 0.38 in9.7 mm
10:30 AM 70.3°F21.3°C 68.8°F20.4°C 95% Calm Calm -- 29.90 in1012.5 mb 0.00 in0.0 mm 0.00 in0.0 mm 0.38 in9.7 mm
10:25 AM 69.9°F21.1°C 68.4°F20.2°C 95% Calm Calm -- 29.90 in1012.5 mb 0.00 in0.0 mm 0.00 in0.0 mm 0.38 in9.7 mm
10:20 AM 69.6°F20.9°C 68.1°F20.1°C 95% Calm Calm -- 29.90 in1012.5 mb 0.00 in0.0 mm 0.00 in0.0 mm 0.38 in9.7 mm
10:15 AM 69.6°F20.9°C 68.1°F20.1°C 95% Calm Calm 2.0 mph3.2 kmh 29.90 in1012.5 mb 0.00 in0.0 mm 0.00 in0.0 mm 0.38 in9.7 mm
10:10 AM 69.6°F20.9°C 68.1°F20.1°C 95% Calm Calm 2.0 mph3.2 kmh 29.90 in1012.5 mb 0.00 in0.0 mm 0.00 in0.0 mm 0.38 in9.7 mm
10:05 AM 69.6°F20.9°C 68.1°F20.1°C 95% Calm Calm 2.0 mph3.2 kmh 29.90 in1012.5 mb 0.00 in0.0 mm 0.00 in0.0 mm 0.38 in9.7 mm
10:00 AM 69.6°F20.9°C 68.1°F20.1°C 95% Calm Calm -- 29.89 in1012.2 mb 0.00 in0.0 mm 0.00 in0.0 mm 0.38 in9.7 mm
09:55 AM 69.4°F20.8°C 67.9°F19.9°C 95% Calm Calm -- 29.89 in1012.2 mb 0.00 in0.0 mm 0.00 in0.0 mm 0.38 in9.7 mm
09:50 AM 69.3°F20.7°C 67.8°F19.9°C 95% Calm Calm -- 29.89 in1012.2 mb 0.00 in0.0 mm 0.00 in0.0 mm 0.38 in9.7 mm
09:45 AM 69.3°F20.7°C 67.8°F19.9°C 95% Calm Calm -- 29.89 in1012.2 mb 0.00 in0.0 mm 0.00 in0.0 mm 0.38 in9.7 mm
09:40 AM 69.1°F20.6°C 67.6°F19.8°C 95% Calm Calm -- 29.89 in1012.2 mb 0.00 in0.0 mm 0.00 in0.0 mm 0.38 in9.7 mm
09:35 AM 68.9°F20.5°C 67.4°F19.7°C 95% Calm Calm -- 29.89 in1012.2 mb 0.00 in0.0 mm 0.00 in0.0 mm 0.38 in9.7 mm
09:30 AM 68.8°F20.4°C 67.3°F19.6°C 95% Calm Calm -- 29.88 in1011.9 mb 0.00 in0.0 mm 0.00 in0.0 mm 0.38 in9.7 mm
09:25 AM 68.8°F20.4°C 67.3°F19.6°C 95% Calm Calm -- 29.88 in1011.9 mb 0.00 in0.0 mm 0.00 in0.0 mm 0.38 in9.7 mm
09:20 AM 68.6°F20.3°C 67.1°F19.5°C 95% Calm Calm -- 29.88 in1011.9 mb 0.00 in0.0 mm 0.00 in0.0 mm 0.38 in9.7 mm
09:15 AM 68.6°F20.3°C 67.1°F19.5°C 95% Calm Calm 1.0 mph1.6 kmh 29.88 in1011.9 mb 0.00 in0.0 mm 0.00 in0.0 mm 0.38 in9.7 mm
09:10 AM 68.6°F20.3°C 67.1°F19.5°C 95% Calm Calm -- 29.88 in1011.9 mb 0.00 in0.0 mm 0.00 in0.0 mm 0.38 in9.7 mm
09:05 AM 68.8°F20.4°C 67.3°F19.6°C 95% Calm Calm -- 29.88 in1011.9 mb 0.00 in0.0 mm 0.00 in0.0 mm 0.38 in9.7 mm
09:00 AM 68.8°F20.4°C 67.3°F19.6°C 95% Calm Calm 1.0 mph1.6 kmh 29.88 in1011.9 mb 0.00 in0.0 mm 0.00 in0.0 mm 0.38 in9.7 mm
08:55 AM 68.8°F20.4°C 67.3°F19.6°C 95% Calm Calm 1.0 mph1.6 kmh 29.88 in1011.9 mb 0.00 in0.0 mm 0.00 in0.0 mm 0.38 in9.7 mm
08:50 AM 68.6°F20.3°C 67.1°F19.5°C 95% Calm Calm 1.0 mph1.6 kmh 29.88 in1011.9 mb 0.00 in0.0 mm 0.00 in0.0 mm 0.38 in9.7 mm
08:45 AM 68.4°F20.2°C 66.9°F19.4°C 95% Calm Calm -- 29.89 in1012.2 mb 0.00 in0.0 mm 0.00 in0.0 mm 0.38 in9.7 mm
08:40 AM 68.3°F20.2°C 66.8°F19.3°C 95% Calm Calm -- 29.89 in1012.2 mb 0.00 in0.0 mm 0.00 in0.0 mm 0.38 in9.7 mm
08:35 AM 68.1°F20.1°C 66.6°F19.2°C 95% Calm Calm -- 29.89 in1012.2 mb 0.00 in0.0 mm 0.00 in0.0 mm 0.38 in9.7 mm
08:30 AM 67.9°F19.9°C 66.4°F19.1°C 95% Calm Calm -- 29.88 in1011.9 mb 0.00 in0.0 mm 0.00 in0.0 mm 0.38 in9.7 mm
08:25 AM 67.8°F19.9°C 66.3°F19.1°C 95% Calm Calm -- 29.88 in1011.9 mb 0.00 in0.0 mm 0.00 in0.0 mm 0.38 in9.7 mm
08:20 AM 67.8°F19.9°C 66.3°F19.1°C 95% Calm Calm -- 29.88 in1011.9 mb 0.00 in0.0 mm 0.00 in0.0 mm 0.38 in9.7 mm
08:15 AM 67.6°F19.8°C 66.1°F18.9°C 95% Calm Calm -- 29.88 in1011.9 mb 0.00 in0.0 mm 0.00 in0.0 mm 0.38 in9.7 mm
08:10 AM 67.6°F19.8°C 66.1°F18.9°C 95% Calm Calm -- 29.88 in1011.9 mb 0.00 in0.0 mm 0.00 in0.0 mm 0.38 in9.7 mm
08:05 AM 67.4°F19.7°C 65.9°F18.8°C 95% Calm Calm -- 29.88 in1011.9 mb 0.00 in0.0 mm 0.00 in0.0 mm 0.38 in9.7 mm
08:00 AM 67.4°F19.7°C 65.9°F18.8°C 95% Calm Calm -- 29.88 in1011.9 mb 0.00 in0.0 mm 0.00 in0.0 mm 0.38 in9.7 mm
07:55 AM 67.4°F19.7°C 65.9°F18.8°C 95% Calm Calm -- 29.88 in1011.9 mb 0.00 in0.0 mm 0.00 in0.0 mm 0.38 in9.7 mm
07:50 AM 67.4°F19.7°C 65.9°F18.8°C 95% Calm Calm -- 29.88 in1011.9 mb 0.00 in0.0 mm 0.00 in0.0 mm 0.38 in9.7 mm
07:45 AM 67.3°F19.6°C 65.8°F18.8°C 95% Calm Calm -- 29.87 in1011.5 mb 0.00 in0.0 mm 0.00 in0.0 mm 0.38 in9.7 mm
07:40 AM 67.3°F19.6°C 65.8°F18.8°C 95% Calm Calm -- 29.87 in1011.5 mb 0.00 in0.0 mm 0.00 in0.0 mm 0.38 in9.7 mm
07:35 AM 67.3°F19.6°C 65.8°F18.8°C 95% Calm Calm -- 29.87 in1011.5 mb 0.00 in0.0 mm 0.00 in0.0 mm 0.38 in9.7 mm
07:30 AM 67.3°F19.6°C 65.8°F18.8°C 95% Calm Calm -- 29.87 in1011.5 mb 0.00 in0.0 mm 0.00 in0.0 mm 0.38 in9.7 mm
07:25 AM 67.3°F19.6°C 65.8°F18.8°C 95% Calm Calm -- 29.87 in1011.5 mb 0.00 in0.0 mm 0.00 in0.0 mm 0.38 in9.7 mm
07:20 AM 67.3°F19.6°C 65.8°F18.8°C 95% Calm Calm -- 29.87 in1011.5 mb 0.00 in0.0 mm 0.00 in0.0 mm 0.38 in9.7 mm
07:15 AM 67.3°F19.6°C 65.8°F18.8°C 95% Calm Calm -- 29.87 in1011.5 mb 0.00 in0.0 mm 0.00 in0.0 mm 0.38 in9.7 mm
07:10 AM 67.3°F19.6°C 65.8°F18.8°C 95% Calm Calm -- 29.87 in1011.5 mb 0.00 in0.0 mm 0.00 in0.0 mm 0.38 in9.7 mm
07:05 AM 67.3°F19.6°C 65.8°F18.8°C 95% Calm Calm -- 29.87 in1011.5 mb 0.00 in0.0 mm 0.00 in0.0 mm 0.38 in9.7 mm
07:00 AM 67.3°F19.6°C 65.8°F18.8°C 95% Calm Calm -- 29.87 in1011.5 mb 0.00 in0.0 mm 0.00 in0.0 mm 0.38 in9.7 mm
06:55 AM 67.3°F19.6°C 65.8°F18.8°C 95% Calm Calm -- 29.87 in1011.5 mb 0.00 in0.0 mm 0.00 in0.0 mm 0.38 in9.7 mm
06:50 AM 67.3°F19.6°C 65.8°F18.8°C 95% Calm Calm -- 29.87 in1011.5 mb 0.00 in0.0 mm 0.00 in0.0 mm 0.38 in9.7 mm
06:45 AM 67.3°F19.6°C 65.8°F18.8°C 95% Calm Calm -- 29.86 in1011.2 mb 0.00 in0.0 mm 0.00 in0.0 mm 0.38 in9.7 mm
06:40 AM 67.3°F19.6°C 65.8°F18.8°C 95% Calm Calm -- 29.86 in1011.2 mb 0.00 in0.0 mm 0.00 in0.0 mm 0.38 in9.7 mm
06:35 AM 67.3°F19.6°C 65.8°F18.8°C 95% Calm Calm -- 29.86 in1011.2 mb 0.00 in0.0 mm 0.00 in0.0 mm 0.38 in9.7 mm
06:30 AM 67.1°F19.5°C 65.6°F18.7°C 95% Calm Calm -- 29.87 in1011.5 mb 0.00 in0.0 mm 0.00 in0.0 mm 0.38 in9.7 mm
06:25 AM 67.1°F19.5°C 65.6°F18.7°C 95% Calm Calm -- 29.87 in1011.5 mb 0.00 in0.0 mm 0.00 in0.0 mm 0.38 in9.7 mm
06:20 AM 67.1°F19.5°C 65.6°F18.7°C 95% Calm Calm -- 29.87 in1011.5 mb 0.00 in0.0 mm 0.00 in0.0 mm 0.38 in9.7 mm
06:15 AM 67.1°F19.5°C 65.6°F18.7°C 95% Calm Calm -- 29.86 in1011.2 mb 0.00 in0.0 mm 0.00 in0.0 mm 0.38 in9.7 mm
06:10 AM 67.1°F19.5°C 65.6°F18.7°C 95% Calm Calm -- 29.86 in1011.2 mb 0.00 in0.0 mm 0.00 in0.0 mm 0.38 in9.7 mm
06:05 AM 67.1°F19.5°C 65.6°F18.7°C 95% Calm Calm -- 29.86 in1011.2 mb 0.00 in0.0 mm 0.00 in0.0 mm 0.38 in9.7 mm
06:00 AM 67.1°F19.5°C 65.6°F18.7°C 95% Calm Calm -- 29.86 in1011.2 mb 0.00 in0.0 mm 0.00 in0.0 mm 0.38 in9.7 mm
05:55 AM 67.1°F19.5°C 65.6°F18.7°C 95% Calm Calm -- 29.86 in1011.2 mb 0.00 in0.0 mm 0.00 in0.0 mm 0.38 in9.7 mm
05:50 AM 67.1°F19.5°C 65.6°F18.7°C 95% Calm Calm -- 29.86 in1011.2 mb 0.00 in0.0 mm 0.00 in0.0 mm 0.38 in9.7 mm
05:45 AM 67.1°F19.5°C 65.6°F18.7°C 95% Calm Calm -- 29.86 in1011.2 mb 0.00 in0.0 mm 0.00 in0.0 mm 0.38 in9.7 mm
05:40 AM 67.1°F19.5°C 65.6°F18.7°C 95% Calm Calm -- 29.86 in1011.2 mb 0.00 in0.0 mm 0.00 in0.0 mm 0.38 in9.7 mm
05:35 AM 67.1°F19.5°C 65.6°F18.7°C 95% Calm Calm -- 29.86 in1011.2 mb 0.00 in0.0 mm 0.00 in0.0 mm 0.38 in9.7 mm
05:30 AM 67.1°F19.5°C 65.6°F18.7°C 95% Calm Calm -- 29.86 in1011.2 mb 0.00 in0.0 mm 0.00 in0.0 mm 0.38 in9.7 mm
05:25 AM 67.1°F19.5°C 65.6°F18.7°C 95% Calm Calm -- 29.86 in1011.2 mb 0.00 in0.0 mm 0.00 in0.0 mm 0.38 in9.7 mm
05:20 AM 67.1°F19.5°C 65.6°F18.7°C 95% Calm Calm -- 29.86 in1011.2 mb 0.00 in0.0 mm 0.00 in0.0 mm 0.38 in9.7 mm
05:15 AM 67.1°F19.5°C 65.6°F18.7°C 95% Calm Calm 1.0 mph1.6 kmh 29.86 in1011.2 mb 0.00 in0.0 mm 0.00 in0.0 mm 0.38 in9.7 mm
05:10 AM 67.1°F19.5°C 65.6°F18.7°C 95% Calm Calm -- 29.86 in1011.2 mb 0.00 in0.0 mm 0.00 in0.0 mm 0.38 in9.7 mm
05:05 AM 67.1°F19.5°C 65.6°F18.7°C 95% Calm Calm -- 29.86 in1011.2 mb 0.00 in0.0 mm 0.00 in0.0 mm 0.38 in9.7 mm
05:00 AM 67.1°F19.5°C 65.6°F18.7°C 95% Calm Calm -- 29.86 in1011.2 mb 0.00 in0.0 mm 0.00 in0.0 mm 0.38 in9.7 mm
04:55 AM 67.1°F19.5°C 65.6°F18.7°C 95% Calm Calm -- 29.86 in1011.2 mb 0.00 in0.0 mm 0.00 in0.0 mm 0.38 in9.7 mm
04:50 AM 67.1°F19.5°C 65.6°F18.7°C 95% Calm Calm -- 29.86 in1011.2 mb 0.00 in0.0 mm 0.00 in0.0 mm 0.38 in9.7 mm
04:45 AM 67.1°F19.5°C 65.6°F18.7°C 95% Calm Calm -- 29.87 in1011.5 mb 0.01 in0.3 mm 0.00 in0.0 mm 0.38 in9.7 mm
04:40 AM 67.1°F19.5°C 65.6°F18.7°C 95% Calm Calm -- 29.87 in1011.5 mb 0.01 in0.3 mm 0.00 in0.0 mm 0.38 in9.7 mm
04:35 AM 67.1°F19.5°C 65.6°F18.7°C 95% Calm Calm -- 29.87 in1011.5 mb 0.01 in0.3 mm 0.00 in0.0 mm 0.38 in9.7 mm
04:30 AM 67.1°F19.5°C 65.6°F18.7°C 95% Calm Calm -- 29.87 in1011.5 mb 0.01 in0.3 mm 0.00 in0.0 mm 0.38 in9.7 mm
04:25 AM 67.1°F19.5°C 65.6°F18.7°C 95% Calm Calm -- 29.87 in1011.5 mb 0.01 in0.3 mm 0.00 in0.0 mm 0.38 in9.7 mm
04:20 AM 67.1°F19.5°C 65.3°F18.5°C 94% Calm Calm -- 29.87 in1011.5 mb 0.01 in0.3 mm 0.00 in0.0 mm 0.38 in9.7 mm
04:15 AM 67.1°F19.5°C 65.3°F18.5°C 94% Calm Calm -- 29.87 in1011.5 mb 0.01 in0.3 mm 0.00 in0.0 mm 0.38 in9.7 mm
04:10 AM 67.1°F19.5°C 65.3°F18.5°C 94% Calm Calm -- 29.87 in1011.5 mb 0.01 in0.3 mm 0.00 in0.0 mm 0.38 in9.7 mm
04:05 AM 66.9°F19.4°C 65.1°F18.4°C 94% Calm Calm -- 29.87 in1011.5 mb 0.01 in0.3 mm 0.00 in0.0 mm 0.38 in9.7 mm
04:00 AM 66.9°F19.4°C 65.1°F18.4°C 94% Calm Calm -- 29.88 in1011.9 mb 0.01 in0.3 mm 0.00 in0.0 mm 0.38 in9.7 mm
03:55 AM 66.9°F19.4°C 65.1°F18.4°C 94% Calm Calm -- 29.88 in1011.9 mb 0.01 in0.3 mm 0.00 in0.0 mm 0.38 in9.7 mm
03:50 AM 66.9°F19.4°C 65.1°F18.4°C 94% Calm Calm -- 29.88 in1011.9 mb 0.01 in0.3 mm 0.00 in0.0 mm 0.38 in9.7 mm
03:45 AM 66.9°F19.4°C 65.1°F18.4°C 94% Calm Calm -- 29.89 in1012.2 mb 0.01 in0.3 mm 0.12 in3.0 mm 0.38 in9.7 mm
03:40 AM 67.1°F19.5°C 65.3°F18.5°C 94% Calm Calm -- 29.89 in1012.2 mb 0.00 in0.0 mm 0.00 in0.0 mm 0.37 in9.4 mm
03:35 AM 67.1°F19.5°C 65.3°F18.5°C 94% Calm Calm -- 29.89 in1012.2 mb 0.00 in0.0 mm 0.00 in0.0 mm 0.37 in9.4 mm
03:30 AM 67.1°F19.5°C 65.3°F18.5°C 94% Calm Calm -- 29.89 in1012.2 mb 0.01 in0.3 mm 0.00 in0.0 mm 0.37 in9.4 mm
03:25 AM 67.1°F19.5°C 65.3°F18.5°C 94% Calm Calm -- 29.89 in1012.2 mb 0.01 in0.3 mm 0.00 in0.0 mm 0.37 in9.4 mm
03:20 AM 67.1°F19.5°C 65.3°F18.5°C 94% Calm Calm -- 29.89 in1012.2 mb 0.01 in0.3 mm 0.00 in0.0 mm 0.37 in9.4 mm
03:15 AM 67.1°F19.5°C 65.3°F18.5°C 94% Calm Calm -- 29.90 in1012.5 mb 0.01 in0.3 mm 0.00 in0.0 mm 0.37 in9.4 mm
03:10 AM 67.1°F19.5°C 65.3°F18.5°C 94% Calm Calm -- 29.90 in1012.5 mb 0.01 in0.3 mm 0.00 in0.0 mm 0.37 in9.4 mm
03:05 AM 67.1°F19.5°C 65.3°F18.5°C 94% Calm Calm -- 29.90 in1012.5 mb 0.01 in0.3 mm 0.00 in0.0 mm 0.37 in9.4 mm
03:00 AM 67.1°F19.5°C 65.3°F18.5°C 94% Calm Calm 3.0 mph4.8 kmh 29.91 in1012.9 mb 0.02 in0.5 mm 0.00 in0.0 mm 0.37 in9.4 mm
02:55 AM 67.1°F19.5°C 65.3°F18.5°C 94% Calm Calm 3.0 mph4.8 kmh 29.91 in1012.9 mb 0.02 in0.5 mm 0.00 in0.0 mm 0.37 in9.4 mm
02:50 AM 67.1°F19.5°C 65.3°F18.5°C 94% Calm Calm 3.0 mph4.8 kmh 29.91 in1012.9 mb 0.02 in0.5 mm 0.00 in0.0 mm 0.37 in9.4 mm
02:45 AM 67.1°F19.5°C 65.3°F18.5°C 94% Calm Calm 1.0 mph1.6 kmh 29.91 in1012.9 mb 0.03 in0.8 mm 0.00 in0.0 mm 0.37 in9.4 mm
02:40 AM 67.1°F19.5°C 65.3°F18.5°C 94% Calm Calm 1.0 mph1.6 kmh 29.91 in1012.9 mb 0.03 in0.8 mm 0.00 in0.0 mm 0.37 in9.4 mm
02:35 AM 67.1°F19.5°C 65.3°F18.5°C 94% Calm Calm 1.0 mph1.6 kmh 29.91 in1012.9 mb 0.03 in0.8 mm 0.00 in0.0 mm 0.37 in9.4 mm
02:30 AM 67.1°F19.5°C 65.3°F18.5°C 94% Calm Calm 1.0 mph1.6 kmh 29.92 in1013.2 mb 0.05 in1.3 mm 0.00 in0.0 mm 0.37 in9.4 mm
02:25 AM 67.1°F19.5°C 65.3°F18.5°C 94% Calm Calm 1.0 mph1.6 kmh 29.92 in1013.2 mb 0.05 in1.3 mm 0.12 in3.0 mm 0.37 in9.4 mm
02:20 AM 67.1°F19.5°C 65.3°F18.5°C 94% Calm Calm -- 29.92 in1013.2 mb 0.04 in1.0 mm 0.00 in0.0 mm 0.36 in9.1 mm
02:15 AM 67.1°F19.5°C 65.3°F18.5°C 94% Calm Calm 1.0 mph1.6 kmh 29.92 in1013.2 mb 0.06 in1.5 mm 0.00 in0.0 mm 0.36 in9.1 mm
02:10 AM 67.3°F19.6°C 65.5°F18.6°C 94% Calm Calm 1.0 mph1.6 kmh 29.92 in1013.2 mb 0.06 in1.5 mm 0.00 in0.0 mm 0.36 in9.1 mm
02:05 AM 67.3°F19.6°C 65.5°F18.6°C 94% Calm Calm -- 29.92 in1013.2 mb 0.06 in1.5 mm 0.00 in0.0 mm 0.36 in9.1 mm
02:00 AM 67.4°F19.7°C 65.6°F18.7°C 94% Calm Calm 3.0 mph4.8 kmh 29.93 in1013.5 mb 0.08 in2.0 mm 0.01 in0.3 mm 0.36 in9.1 mm
01:55 AM 67.4°F19.7°C 65.6°F18.7°C 94% Calm Calm 3.0 mph4.8 kmh 29.93 in1013.5 mb 0.07 in1.8 mm 0.00 in0.0 mm 0.35 in8.9 mm
01:50 AM 67.4°F19.7°C 65.6°F18.7°C 94% Calm Calm 1.0 mph1.6 kmh 29.93 in1013.5 mb 0.07 in1.8 mm 0.00 in0.0 mm 0.35 in8.9 mm
01:45 AM 67.6°F19.8°C 65.8°F18.8°C 94% Calm Calm 1.0 mph1.6 kmh 29.92 in1013.2 mb 0.10 in2.5 mm 0.00 in0.0 mm 0.35 in8.9 mm
01:40 AM 67.6°F19.8°C 65.8°F18.8°C 94% Calm Calm 1.0 mph1.6 kmh 29.92 in1013.2 mb 0.10 in2.5 mm 0.00 in0.0 mm 0.35 in8.9 mm
01:35 AM 67.4°F19.7°C 65.6°F18.7°C 94% Calm Calm -- 29.92 in1013.2 mb 0.10 in2.5 mm 0.00 in0.0 mm 0.35 in8.9 mm
01:30 AM 67.6°F19.8°C 65.8°F18.8°C 94% Calm Calm 3.0 mph4.8 kmh 29.92 in1013.2 mb 0.13 in3.3 mm 0.00 in0.0 mm 0.35 in8.9 mm
01:25 AM 67.6°F19.8°C 65.8°F18.8°C 94% Calm Calm 1.0 mph1.6 kmh 29.92 in1013.2 mb 0.13 in3.3 mm 0.12 in3.0 mm 0.35 in8.9 mm
01:20 AM 67.6°F19.8°C 65.8°F18.8°C 94% Calm Calm -- 29.92 in1013.2 mb 0.12 in3.0 mm 0.00 in0.0 mm 0.34 in8.6 mm
01:15 AM 67.6°F19.8°C 65.8°F18.8°C 94% Calm Calm 2.0 mph3.2 kmh 29.93 in1013.5 mb 0.16 in4.1 mm 0.12 in3.0 mm 0.34 in8.6 mm
01:10 AM 67.6°F19.8°C 65.8°F18.8°C 94% Calm Calm 2.0 mph3.2 kmh 29.93 in1013.5 mb 0.15 in3.8 mm 0.00 in0.0 mm 0.33 in8.4 mm
01:05 AM 67.6°F19.8°C 65.8°F18.8°C 94% Calm Calm 2.0 mph3.2 kmh 29.93 in1013.5 mb 0.15 in3.8 mm 0.00 in0.0 mm 0.33 in8.4 mm
01:00 AM 67.6°F19.8°C 65.8°F18.8°C 94% Calm Calm 1.0 mph1.6 kmh 29.93 in1013.5 mb 0.20 in5.1 mm 0.01 in0.3 mm 0.33 in8.4 mm
12:55 AM 67.6°F19.8°C 65.8°F18.8°C 94% Calm Calm 1.0 mph1.6 kmh 29.93 in1013.5 mb 0.19 in4.8 mm 0.12 in3.0 mm 0.32 in8.1 mm
12:50 AM 67.6°F19.8°C 65.8°F18.8°C 94% Calm Calm -- 29.93 in1013.5 mb 0.18 in4.6 mm 0.00 in0.0 mm 0.31 in7.9 mm
12:45 AM 67.6°F19.8°C 65.8°F18.8°C 94% Calm Calm 2.0 mph3.2 kmh 29.92 in1013.2 mb 0.21 in5.3 mm 0.12 in3.0 mm 0.31 in7.9 mm
12:40 AM 67.6°F19.8°C 65.8°F18.8°C 94% Calm Calm 2.0 mph3.2 kmh 29.92 in1013.2 mb 0.20 in5.1 mm 0.12 in3.0 mm 0.30 in7.6 mm
12:35 AM 67.6°F19.8°C 65.8°F18.8°C 94% Calm Calm 2.0 mph3.2 kmh 29.92 in1013.2 mb 0.19 in4.8 mm 0.00 in0.0 mm 0.29 in7.4 mm
12:30 AM 67.6°F19.8°C 65.8°F18.8°C 94% Calm Calm 3.0 mph4.8 kmh 29.93 in1013.5 mb 0.22 in5.6 mm 0.24 in6.1 mm 0.29 in7.4 mm
12:25 AM 67.6°F19.8°C 65.8°F18.8°C 94% Calm Calm 3.0 mph4.8 kmh 29.93 in1013.5 mb 0.20 in5.1 mm 0.12 in3.0 mm 0.27 in6.9 mm
12:20 AM 67.8°F19.9°C 66.0°F18.9°C 94% Calm Calm 3.0 mph4.8 kmh 29.93 in1013.5 mb 0.19 in4.8 mm 0.00 in0.0 mm 0.26 in6.6 mm
12:15 AM 67.8°F19.9°C 66.0°F18.9°C 94% Calm Calm 2.0 mph3.2 kmh 29.94 in1013.9 mb 0.21 in5.3 mm 0.12 in3.0 mm 0.26 in6.6 mm
12:10 AM 67.8°F19.9°C 66.0°F18.9°C 94% Calm Calm 2.0 mph3.2 kmh 29.94 in1013.9 mb 0.20 in5.1 mm 0.24 in6.1 mm 0.25 in6.4 mm
12:05 AM 67.8°F19.9°C 66.0°F18.9°C 94% Calm Calm 2.0 mph3.2 kmh 29.94 in1013.9 mb 0.18 in4.6 mm 0.00 in0.0 mm 0.23 in5.8 mm
12:00 AM 67.8°F19.9°C 66.0°F18.9°C 94% Calm Calm 2.0 mph3.2 kmh 29.94 in1013.9 mb 0.23 in5.8 mm 0.00 in0.0 mm 0.23 in5.8 mm